Ubc Stavanger — P3XJ9 — position and weather

sailwx.info

Track history (hours):
 
Tides and Currents Weather Stations Pressure Air Temp Water Temp Dewpoint Dewpoint Depression Visibility Wind Speed Wind Dir Waves Ship Positions

Ubc Stavanger

Last reported at 2018-Jun-04 03:40 UTC. Time now 2018-Jun-20 04:08 UTC.
Position N 29°56' W 093°20'.
Warning: this ship's position is 16 days out of date.

Length 172 m; draft 10 m.

Type: Cargo ship. MMSI: 209156000.

Date/timePositionNaut miles runAvg speedWind from/ knotsBaromVisibWave heightAir tempDewpointWater temp
2018-Jun-04 03:40N 29°56' W 093°20'2 9.1
2018-Jun-04 03:29N 29°58' W 093°20'4 7.4
2018-Jun-04 03:01N 30°01' W 093°20'4 7.7
2018-Jun-04 02:30N 30°05' W 093°20'3 7.0
2018-Jun-04 02:00N 30°09' W 093°20'2 4.5
2018-Jun-04 01:30N 30°11' W 093°19'1 2.6
2018-Jun-04 00:58N 30°12' W 093°18'0 0.0
2018-Jun-03 23:16N 30°12' W 093°18'0 0.0
2018-Jun-03 22:58N 30°12' W 093°18'0 0.0
2018-Jun-03 20:10N 30°12' W 093°18'0 0.0
2018-Jun-03 19:52N 30°12' W 093°18'0 0.0
2018-Jun-03 19:22N 30°12' W 093°18'0 0.0
2018-Jun-03 15:10N 30°12' W 093°18'0 0.0
2018-Jun-03 07:28N 30°12' W 093°18'0 0.0
2018-Jun-03 06:58N 30°12' W 093°18'0 0.0
2018-Jun-03 06:22N 30°12' W 093°18'0 0.0
2018-Jun-03 05:22N 30°12' W 093°18'0 0.0
2018-Jun-03 03:34N 30°12' W 093°18'0 0.1
2018-Jun-03 03:28N 30°12' W 093°18'0 0.0
2018-Jun-03 00:58N 30°12' W 093°18'0 0.0
2018-Jun-03 00:22N 30°12' W 093°18'0 0.0
2018-Jun-02 23:58N 30°12' W 093°18'0 0.0
2018-Jun-02 23:28N 30°12' W 093°18'0 0.0
2018-Jun-02 22:58N 30°12' W 093°18'0 0.0
2018-Jun-02 22:28N 30°12' W 093°18'0 0.0
2018-Jun-02 21:58N 30°12' W 093°18'0 0.0
2018-Jun-02 21:28N 30°12' W 093°18'0 0.0
2018-Jun-02 20:52N 30°12' W 093°18'0 0.0
2018-Jun-02 20:28N 30°12' W 093°18'0 0.0
2018-Jun-02 19:58N 30°12' W 093°18'0 0.0
2018-Jun-02 19:22N 30°12' W 093°18'0 0.0
2018-Jun-02 18:58N 30°12' W 093°18'0 0.0
2018-Jun-02 18:28N 30°12' W 093°18'0 0.0
2018-Jun-02 17:58N 30°12' W 093°18'0 0.0
2018-Jun-02 17:22N 30°12' W 093°18'0 0.0
2018-Jun-02 16:34N 30°12' W 093°18'0 0.0
2018-Jun-02 16:28N 30°12' W 093°18'0 0.0
2018-Jun-02 15:52N 30°12' W 093°18'0 0.0
2018-Jun-02 15:28N 30°12' W 093°18'0 0.0
2018-Jun-02 14:46N 30°12' W 093°18'0 0.0
2018-Jun-02 14:28N 30°12' W 093°18'0 0.0
2018-Jun-02 13:52N 30°12' W 093°18'0 0.0
2018-Jun-02 13:28N 30°12' W 093°18'0 0.0
2018-Jun-02 12:46N 30°12' W 093°18'0 0.0
2018-Jun-02 12:28N 30°12' W 093°18'0 0.0
2018-Jun-02 11:58N 30°12' W 093°18'0 0.0
2018-Jun-02 06:16N 30°12' W 093°18'0 0.0
2018-Jun-02 05:58N 30°12' W 093°18'0 0.0
2018-Jun-02 05:28N 30°12' W 093°18'0 0.0
2018-Jun-02 04:58N 30°12' W 093°18'0 0.0
2018-Jun-02 04:22N 30°12' W 093°18'0 0.0
2018-Jun-02 03:58N 30°12' W 093°18'0 0.0
2018-Jun-02 03:28N 30°12' W 093°18'0 0.0
2018-Jun-02 02:46N 30°12' W 093°18'0 0.0
2018-Jun-02 02:28N 30°12' W 093°18'0 0.0
2018-Jun-02 01:52N 30°12' W 093°18'0 0.0
2018-Jun-02 01:30N 30°12' W 093°18'0 0.1
2018-Jun-02 01:01N 30°12' W 093°18'2 3.2
2018-Jun-02 00:30N 30°10' W 093°19'3 5.4
2018-Jun-02 00:00N 30°08' W 093°20'4 8.8
2018-Jun-01 23:30N 30°03' W 093°20'4 7.4
2018-Jun-01 23:00N 29°60' W 093°20'5 9.2
2018-Jun-01 22:30N 29°55' W 093°20'  
2018-May-27 02:33N 19°23' W 095°57'112.5
2018-May-27 02:27N 19°22' W 095°57'612.3
2018-May-27 02:00N 19°16' W 095°57'611.5
2018-May-27 01:30N 19°12' W 096°02'4 8.3
2018-May-27 01:00N 19°12' W 096°06'2 3.6
2018-May-27 00:29N 19°12' W 096°08'0 0.0
2018-May-26 23:53N 19°12' W 096°08'0 0.0
2018-May-26 23:29N 19°12' W 096°08'0 0.0
2018-May-26 22:59N 19°12' W 096°08'0 0.0
2018-May-26 22:29N 19°12' W 096°08'0 0.0
2018-May-26 21:59N 19°12' W 096°08'0 0.0
2018-May-26 21:29N 19°12' W 096°08'0 0.0
2018-May-26 20:59N 19°12' W 096°08'0 0.0
2018-May-26 20:29N 19°12' W 096°08'0 0.0
2018-May-26 19:59N 19°12' W 096°08'0 0.0
2018-May-26 19:23N 19°12' W 096°08'0 0.0
2018-May-26 18:59N 19°12' W 096°08'0 0.0
2018-May-26 18:29N 19°12' W 096°08'0 0.0
2018-May-26 17:59N 19°12' W 096°08'0 0.0
2018-May-26 17:29N 19°12' W 096°08'0 0.0
2018-May-26 16:53N 19°12' W 096°08'0 0.0
2018-May-26 16:29N 19°12' W 096°08'0 0.0
2018-May-26 15:59N 19°12' W 096°08'0 0.0
2018-May-26 15:29N 19°12' W 096°08'0 0.0
2018-May-26 14:56N 19°12' W 096°08'0 0.0
2018-May-26 14:29N 19°12' W 096°08'0 0.0
2018-May-26 13:59N 19°12' W 096°08'0 0.0
2018-May-26 13:29N 19°12' W 096°08'0 0.0
2018-May-26 12:59N 19°12' W 096°08'0 0.0
2018-May-26 12:29N 19°12' W 096°08'0 0.0
2018-May-26 11:53N 19°12' W 096°08'0 0.0
2018-May-26 11:29N 19°12' W 096°08'0 0.0
2018-May-26 10:59N 19°12' W 096°08'0 0.0
2018-May-26 10:29N 19°12' W 096°08'0 0.0
2018-May-26 09:59N 19°12' W 096°08'0 0.0
2018-May-26 09:29N 19°12' W 096°08'0 0.0
2018-May-26 08:59N 19°12' W 096°08'0 0.0
2018-May-26 08:29N 19°12' W 096°08'0 0.0
2018-May-26 07:53N 19°12' W 096°08'0 0.0
2018-May-26 07:17N 19°12' W 096°08'0 0.0
2018-May-26 06:53N 19°12' W 096°08'0 0.0
2018-May-26 06:23N 19°12' W 096°08'0 0.0
2018-May-26 05:29N 19°12' W 096°08'0 0.0
2018-May-26 04:59N 19°12' W 096°08'0 0.0
2018-May-26 04:29N 19°12' W 096°08'0 0.0
2018-May-26 03:59N 19°12' W 096°08'0 0.0
2018-May-26 03:23N 19°12' W 096°08'0 0.0
2018-May-26 02:59N 19°12' W 096°08'0 0.0
2018-May-26 02:29N 19°12' W 096°08'0 0.0
2018-May-26 01:59N 19°12' W 096°08'0 0.0
2018-May-26 01:29N 19°12' W 096°08'0 0.0
2018-May-26 00:59N 19°12' W 096°08'0 0.0
2018-May-26 00:29N 19°12' W 096°08'0 0.0
2018-May-25 23:59N 19°12' W 096°08'0 0.0
2018-May-25 23:29N 19°12' W 096°08'0 0.0
2018-May-25 22:59N 19°12' W 096°08'0 0.0
2018-May-25 22:23N 19°12' W 096°08'0 0.0
2018-May-25 21:59N 19°12' W 096°08'0 0.0
2018-May-25 21:29N 19°12' W 096°08'0 0.0
2018-May-25 20:59N 19°12' W 096°08'0 0.0
2018-May-25 20:29N 19°12' W 096°08'0 0.0
2018-May-25 19:59N 19°12' W 096°08'0 0.0
2018-May-25 19:29N 19°12' W 096°08'0 0.0
2018-May-25 18:59N 19°12' W 096°08'0 0.0
2018-May-25 18:29N 19°12' W 096°08'0 0.0
2018-May-25 17:53N 19°12' W 096°08'0 0.0
2018-May-25 17:23N 19°12' W 096°08'0 0.0
2018-May-25 16:53N 19°12' W 096°08'0 0.0
2018-May-25 16:23N 19°12' W 096°08'0 0.0
2018-May-25 15:59N 19°12' W 096°08'0 0.0
2018-May-25 15:29N 19°12' W 096°08'0 0.0
2018-May-25 14:53N 19°12' W 096°08'0 0.0
2018-May-25 14:29N 19°12' W 096°08'0 0.0
2018-May-25 13:53N 19°12' W 096°08'0 0.0
2018-May-25 13:29N 19°12' W 096°08'0 0.0
2018-May-25 12:59N 19°12' W 096°08'0 0.0
2018-May-25 12:29N 19°12' W 096°08'0 0.0
2018-May-25 11:41N 19°12' W 096°08'0 0.0
2018-May-25 11:29N 19°12' W 096°08'0 0.0
2018-May-25 10:53N 19°12' W 096°08'0 0.0
2018-May-25 10:29N 19°12' W 096°08'0 0.0
2018-May-25 09:59N 19°12' W 096°08'0 0.0
2018-May-25 09:11N 19°12' W 096°08'0 0.0
2018-May-25 08:53N 19°12' W 096°08'0 0.0
2018-May-25 08:29N 19°12' W 096°08'0 0.0
2018-May-25 07:59N 19°12' W 096°08'0 0.0
2018-May-25 07:29N 19°12' W 096°08'0 0.0
2018-May-25 06:53N 19°12' W 096°08'0 0.0
2018-May-25 06:29N 19°12' W 096°08'0 0.0
2018-May-25 05:59N 19°12' W 096°08'0 0.0
2018-May-25 05:29N 19°12' W 096°08'0 0.0
2018-May-25 04:59N 19°12' W 096°08'0 0.0
2018-May-25 04:29N 19°12' W 096°08'0 0.0
2018-May-25 03:47N 19°12' W 096°08'  
Track history (hours):
 
Tides and Currents Weather Stations Pressure Air Temp Water Temp Dewpoint Dewpoint Depression Visibility Wind Speed Wind Dir Waves Ship Positions

Ubc Stavanger

Last reported at 2018-Jun-04 03:40 UTC. Time now 2018-Jun-20 04:08 UTC.
Position N 29°56' W 093°20'.
Warning: this ship's position is 16 days out of date.

Length 172 m; draft 10 m.

Type: Cargo ship. MMSI: 209156000.

Date/timePositionNaut miles runAvg speedWind from/ knotsBaromVisibWave heightAir tempDewpointWater temp
2018-Jun-04 03:40N 29°56' W 093°20'2 9.1
2018-Jun-04 03:29N 29°58' W 093°20'4 7.4
2018-Jun-04 03:01N 30°01' W 093°20'4 7.7
2018-Jun-04 02:30N 30°05' W 093°20'3 7.0
2018-Jun-04 02:00N 30°09' W 093°20'2 4.5
2018-Jun-04 01:30N 30°11' W 093°19'1 2.6
2018-Jun-04 00:58N 30°12' W 093°18'0 0.0
2018-Jun-03 23:16N 30°12' W 093°18'0 0.0
2018-Jun-03 22:58N 30°12' W 093°18'0 0.0
2018-Jun-03 20:10N 30°12' W 093°18'0 0.0
2018-Jun-03 19:52N 30°12' W 093°18'0 0.0
2018-Jun-03 19:22N 30°12' W 093°18'0 0.0
2018-Jun-03 15:10N 30°12' W 093°18'0 0.0
2018-Jun-03 07:28N 30°12' W 093°18'0 0.0
2018-Jun-03 06:58N 30°12' W 093°18'0 0.0
2018-Jun-03 06:22N 30°12' W 093°18'0 0.0
2018-Jun-03 05:22N 30°12' W 093°18'0 0.0
2018-Jun-03 03:34N 30°12' W 093°18'0 0.1
2018-Jun-03 03:28N 30°12' W 093°18'0 0.0
2018-Jun-03 00:58N 30°12' W 093°18'0 0.0
2018-Jun-03 00:22N 30°12' W 093°18'0 0.0
2018-Jun-02 23:58N 30°12' W 093°18'0 0.0
2018-Jun-02 23:28N 30°12' W 093°18'0 0.0
2018-Jun-02 22:58N 30°12' W 093°18'0 0.0
2018-Jun-02 22:28N 30°12' W 093°18'0 0.0
2018-Jun-02 21:58N 30°12' W 093°18'0 0.0
2018-Jun-02 21:28N 30°12' W 093°18'0 0.0
2018-Jun-02 20:52N 30°12' W 093°18'0 0.0
2018-Jun-02 20:28N 30°12' W 093°18'0 0.0
2018-Jun-02 19:58N 30°12' W 093°18'0 0.0
2018-Jun-02 19:22N 30°12' W 093°18'0 0.0
2018-Jun-02 18:58N 30°12' W 093°18'0 0.0
2018-Jun-02 18:28N 30°12' W 093°18'0 0.0
2018-Jun-02 17:58N 30°12' W 093°18'0 0.0
2018-Jun-02 17:22N 30°12' W 093°18'0 0.0
2018-Jun-02 16:34N 30°12' W 093°18'0 0.0
2018-Jun-02 16:28N 30°12' W 093°18'0 0.0
2018-Jun-02 15:52N 30°12' W 093°18'0 0.0
2018-Jun-02 15:28N 30°12' W 093°18'0 0.0
2018-Jun-02 14:46N 30°12' W 093°18'0 0.0
2018-Jun-02 14:28N 30°12' W 093°18'0 0.0
2018-Jun-02 13:52N 30°12' W 093°18'0 0.0
2018-Jun-02 13:28N 30°12' W 093°18'0 0.0
2018-Jun-02 12:46N 30°12' W 093°18'0 0.0
2018-Jun-02 12:28N 30°12' W 093°18'0 0.0
2018-Jun-02 11:58N 30°12' W 093°18'0 0.0
2018-Jun-02 06:16N 30°12' W 093°18'0 0.0
2018-Jun-02 05:58N 30°12' W 093°18'0 0.0
2018-Jun-02 05:28N 30°12' W 093°18'0 0.0
2018-Jun-02 04:58N 30°12' W 093°18'0 0.0
2018-Jun-02 04:22N 30°12' W 093°18'0 0.0
2018-Jun-02 03:58N 30°12' W 093°18'0 0.0
2018-Jun-02 03:28N 30°12' W 093°18'0 0.0
2018-Jun-02 02:46N 30°12' W 093°18'0 0.0
2018-Jun-02 02:28N 30°12' W 093°18'0 0.0
2018-Jun-02 01:52N 30°12' W 093°18'0 0.0
2018-Jun-02 01:30N 30°12' W 093°18'0 0.1
2018-Jun-02 01:01N 30°12' W 093°18'2 3.2
2018-Jun-02 00:30N 30°10' W 093°19'3 5.4
2018-Jun-02 00:00N 30°08' W 093°20'4 8.8
2018-Jun-01 23:30N 30°03' W 093°20'4 7.4
2018-Jun-01 23:00N 29°60' W 093°20'5 9.2
2018-Jun-01 22:30N 29°55' W 093°20'  
2018-May-27 02:33N 19°23' W 095°57'112.5
2018-May-27 02:27N 19°22' W 095°57'612.3
2018-May-27 02:00N 19°16' W 095°57'611.5
2018-May-27 01:30N 19°12' W 096°02'4 8.3
2018-May-27 01:00N 19°12' W 096°06'2 3.6
2018-May-27 00:29N 19°12' W 096°08'0 0.0
2018-May-26 23:53N 19°12' W 096°08'0 0.0
2018-May-26 23:29N 19°12' W 096°08'0 0.0
2018-May-26 22:59N 19°12' W 096°08'0 0.0
2018-May-26 22:29N 19°12' W 096°08'0 0.0
2018-May-26 21:59N 19°12' W 096°08'0 0.0
2018-May-26 21:29N 19°12' W 096°08'0 0.0
2018-May-26 20:59N 19°12' W 096°08'0 0.0
2018-May-26 20:29N 19°12' W 096°08'0 0.0
2018-May-26 19:59N 19°12' W 096°08'0 0.0
2018-May-26 19:23N 19°12' W 096°08'0 0.0
2018-May-26 18:59N 19°12' W 096°08'0 0.0
2018-May-26 18:29N 19°12' W 096°08'0 0.0
2018-May-26 17:59N 19°12' W 096°08'0 0.0
2018-May-26 17:29N 19°12' W 096°08'0 0.0
2018-May-26 16:53N 19°12' W 096°08'0 0.0
2018-May-26 16:29N 19°12' W 096°08'0 0.0
2018-May-26 15:59N 19°12' W 096°08'0 0.0
2018-May-26 15:29N 19°12' W 096°08'0 0.0
2018-May-26 14:56N 19°12' W 096°08'0 0.0
2018-May-26 14:29N 19°12' W 096°08'0 0.0
2018-May-26 13:59N 19°12' W 096°08'0 0.0
2018-May-26 13:29N 19°12' W 096°08'0 0.0
2018-May-26 12:59N 19°12' W 096°08'0 0.0
2018-May-26 12:29N 19°12' W 096°08'0 0.0
2018-May-26 11:53N 19°12' W 096°08'0 0.0
2018-May-26 11:29N 19°12' W 096°08'0 0.0
2018-May-26 10:59N 19°12' W 096°08'0 0.0
2018-May-26 10:29N 19°12' W 096°08'0 0.0
2018-May-26 09:59N 19°12' W 096°08'0 0.0
2018-May-26 09:29N 19°12' W 096°08'0 0.0
2018-May-26 08:59N 19°12' W 096°08'0 0.0
2018-May-26 08:29N 19°12' W 096°08'0 0.0
2018-May-26 07:53N 19°12' W 096°08'0 0.0
2018-May-26 07:17N 19°12' W 096°08'0 0.0
2018-May-26 06:53N 19°12' W 096°08'0 0.0
2018-May-26 06:23N 19°12' W 096°08'0 0.0
2018-May-26 05:29N 19°12' W 096°08'0 0.0
2018-May-26 04:59N 19°12' W 096°08'0 0.0
2018-May-26 04:29N 19°12' W 096°08'0 0.0
2018-May-26 03:59N 19°12' W 096°08'0 0.0
2018-May-26 03:23N 19°12' W 096°08'0 0.0
2018-May-26 02:59N 19°12' W 096°08'0 0.0
2018-May-26 02:29N 19°12' W 096°08'0 0.0
2018-May-26 01:59N 19°12' W 096°08'0 0.0
2018-May-26 01:29N 19°12' W 096°08'0 0.0
2018-May-26 00:59N 19°12' W 096°08'0 0.0
2018-May-26 00:29N 19°12' W 096°08'0 0.0
2018-May-25 23:59N 19°12' W 096°08'0 0.0
2018-May-25 23:29N 19°12' W 096°08'0 0.0
2018-May-25 22:59N 19°12' W 096°08'0 0.0
2018-May-25 22:23N 19°12' W 096°08'0 0.0
2018-May-25 21:59N 19°12' W 096°08'0 0.0
2018-May-25 21:29N 19°12' W 096°08'0 0.0
2018-May-25 20:59N 19°12' W 096°08'0 0.0
2018-May-25 20:29N 19°12' W 096°08'0 0.0
2018-May-25 19:59N 19°12' W 096°08'0 0.0
2018-May-25 19:29N 19°12' W 096°08'0 0.0
2018-May-25 18:59N 19°12' W 096°08'0 0.0
2018-May-25 18:29N 19°12' W 096°08'0 0.0
2018-May-25 17:53N 19°12' W 096°08'0 0.0
2018-May-25 17:23N 19°12' W 096°08'0 0.0
2018-May-25 16:53N 19°12' W 096°08'0 0.0
2018-May-25 16:23N 19°12' W 096°08'0 0.0
2018-May-25 15:59N 19°12' W 096°08'0 0.0
2018-May-25 15:29N 19°12' W 096°08'0 0.0
2018-May-25 14:53N 19°12' W 096°08'0 0.0
2018-May-25 14:29N 19°12' W 096°08'0 0.0
2018-May-25 13:53N 19°12' W 096°08'0 0.0
2018-May-25 13:29N 19°12' W 096°08'0 0.0
2018-May-25 12:59N 19°12' W 096°08'0 0.0
2018-May-25 12:29N 19°12' W 096°08'0 0.0
2018-May-25 11:41N 19°12' W 096°08'0 0.0
2018-May-25 11:29N 19°12' W 096°08'0 0.0
2018-May-25 10:53N 19°12' W 096°08'0 0.0
2018-May-25 10:29N 19°12' W 096°08'0 0.0
2018-May-25 09:59N 19°12' W 096°08'0 0.0
2018-May-25 09:11N 19°12' W 096°08'0 0.0
2018-May-25 08:53N 19°12' W 096°08'0 0.0
2018-May-25 08:29N 19°12' W 096°08'0 0.0
2018-May-25 07:59N 19°12' W 096°08'0 0.0
2018-May-25 07:29N 19°12' W 096°08'0 0.0
2018-May-25 06:53N 19°12' W 096°08'0 0.0
2018-May-25 06:29N 19°12' W 096°08'0 0.0
2018-May-25 05:59N 19°12' W 096°08'0 0.0
2018-May-25 05:29N 19°12' W 096°08'0 0.0
2018-May-25 04:59N 19°12' W 096°08'0 0.0
2018-May-25 04:29N 19°12' W 096°08'0 0.0
2018-May-25 03:47N 19°12' W 096°08'  

Dump ship's entire track history